• Join FlightAware (Why Join?)
  • Login
  • US Flag 
02:31AM EDT


 

Airport Tracker/Info


-or-


 

Live Flight TrackerFlight Track Log ✈ ASQ4209 ✈ 15-Jul-2013 ✈ KIAH - KBTR

Flight Track Log - Related Links

Times and Time Zones

All times are in EDT time to prevent confusion due to time zone crossing. See the ASQ4209 flight status page for this flight to view local times or setup timezone preferences in your user account.

Time Position Orientation Groundspeed Altitude Reporting Facility
EDT Latitude Longitude Course Direction KTS MPH feet Rate Location/Type
01:01PM 29.9614 -95.3411 90° East 161 185 800  Level Houston Center
01:02PM 29.9439 -95.2856 110° East 222 255 2,600 1,680 Climbing Houston Center
01:03PM 29.9344 -95.2272 101° East 234 269 4,000 2,100 Climbing Houston Center
01:04PM 29.9214 -95.1461 101° East 254 292 6,700 2,520 Climbing Houston Center
01:05PM 29.9834 -94.9077 90° East  Level FlightAware Approximate
01:05PM 29.9097 -95.0614 99° East 262 302 9,200  Level Houston Center
01:06PM 29.9834 -94.8013 90° East  Level FlightAware Approximate
01:06PM 29.9025 -94.9767 96° East 270 311 12,100  Level Houston Center
01:07PM 29.9933 -94.9475 16° North 301 346 13,400 1,020 Climbing Houston Center
01:08PM 30.0856 -94.9156 17° North 349 402 14,300 1,020 Climbing Houston Center
01:09PM 30.1553 -94.8258 48° Northeast 376 433 15,600 1,620 Climbing Houston Center
01:10PM 30.1700 -94.7119 81° East 360 414 17,700 2,220 Climbing Houston Center
01:11PM 30.1803 -94.6061 84° East 339 390 20,300 1,920 Climbing Houston Center
01:12PM 30.1922 -94.4861 83° East 326 375 21,700 960 Climbing Houston Center
01:13PM 30.2042 -94.3717 83° East 349 402 22,300 480 Climbing Houston Center
01:14PM 30.2164 -94.2458 84° East 382 440 22,700 300 Climbing Houston Center
01:15PM 30.2311 -94.1144 83° East 408 470 23,000 120 Climbing Houston Center
01:16PM 30.2447 -93.9781 83° East 424 488 23,000  Level Houston Center
01:17PM 30.2586 -93.8367 83° East 440 506 23,000  Level Houston Center
01:18PM 30.2750 -93.6722 83° East 432 497 23,000  Level Houston Center
01:19PM 30.2853 -93.5408 85° East 421 484 23,000  Level Houston Center
01:20PM 30.2989 -93.4078 83° East 437 503 23,000  Level Houston Center
01:21PM 30.3119 -93.2744 83° East 427 491 23,000  Level Houston Center
01:22PM 30.3908 -93.1433 55° Northeast 433 498 23,000  Level Houston Center
01:23PM 30.4847 -93.0606 37° Northeast 430 495 23,000  Level Houston Center
01:24PM 30.5828 -92.9822 35° Northeast 432 497 23,000  Level Houston Center
01:25PM 30.6892 -92.9133 29° Northeast 439 505 23,000  Level Houston Center
01:26PM 30.8022 -92.8422 28° Northeast 438 504 23,000  Level Houston Center
01:27PM 30.8975 -92.7619 36° Northeast 440 506 23,000  Level Houston Center
01:29PM 30.9392 -92.6372 69° East 419 482 23,000  Level Houston Center
01:30PM 30.9653 -92.4797 79° East 419 482 23,000  Level Houston Center
01:31PM 30.9717 -92.3450 87° East 421 484 23,000 -300 Level Houston Center
01:32PM 30.9539 -92.2078 99° East 430 495 22,400 -1,260 Descending Houston Center
01:33PM 30.9353 -92.0756 99° East 421 484 20,400 -2,220 Descending Houston Center
01:34PM 30.9217 -91.9500 97° East 400 460 17,900 -2,700 Descending Houston Center
01:35PM 30.9025 -91.8014 99° East 390 449 14,900 -2,760 Descending Houston Center
01:36PM 30.8894 -91.6872 98° East 368 423 12,300 -2,040 Descending Houston Center
01:37PM 30.8628 -91.5978 109° East 306 352 10,700 -1,980 Descending Houston Center
01:38PM 30.8392 -91.5153 108° East 276 318 8,300 -2,280 Descending Houston Center
01:39PM 30.7875 -91.4561 135° Southeast 260 299 6,000 -1,860 Descending Houston Center
01:40PM 30.7383 -91.3961 134° Southeast 253 291 4,500 -1,500 Descending Houston Center
01:41PM 30.6931 -91.3417 134° Southeast 241 277 3,000 3,120 Descending Houston Center
01:42PM 30.6303 -91.2978 149° Southeast 242 278 11,000 7,740 Climbing Houston Center